sensor_id;sensor_type;location;lat;lon;timestamp;pressure;altitude;pressure_sealevel;temperature;humidity
57050;BME280;42935;50.966;16.992;2023-04-22T00:02:47;101493.16;;;4.20;100.00
57050;BME280;42935;50.966;16.992;2023-04-22T00:06:13;101482.89;;;4.44;100.00
57050;BME280;42935;50.966;16.992;2023-04-22T00:09:41;101482.78;;;4.48;100.00
57050;BME280;42935;50.966;16.992;2023-04-22T00:13:06;101465.91;;;4.54;100.00
57050;BME280;42935;50.966;16.992;2023-04-22T00:16:30;101473.74;;;4.48;100.00
57050;BME280;42935;50.966;16.992;2023-04-22T00:20:01;101465.61;;;4.41;100.00
57050;BME280;42935;50.966;16.992;2023-04-22T00:23:22;101473.64;;;4.49;100.00
57050;BME280;42935;50.966;16.992;2023-04-22T00:26:50;101475.01;;;4.26;100.00
57050;BME280;42935;50.966;16.992;2023-04-22T00:30:11;101478.66;;;3.98;100.00
57050;BME280;42935;50.966;16.992;2023-04-22T00:33:32;101471.72;;;4.22;100.00
57050;BME280;42935;50.966;16.992;2023-04-22T00:37:01;101450.14;;;3.86;100.00
57050;BME280;42935;50.966;16.992;2023-04-22T00:40:27;101477.48;;;4.17;100.00
57050;BME280;42935;50.966;16.992;2023-04-22T00:43:51;101463.92;;;4.08;100.00
57050;BME280;42935;50.966;16.992;2023-04-22T00:47:20;101474.88;;;4.15;100.00
57050;BME280;42935;50.966;16.992;2023-04-22T00:50:46;101471.72;;;4.16;100.00
57050;BME280;42935;50.966;16.992;2023-04-22T00:54:06;101466.69;;;4.03;100.00
57050;BME280;42935;50.966;16.992;2023-04-22T00:57:29;101477.13;;;3.82;100.00
57050;BME280;42935;50.966;16.992;2023-04-22T01:00:54;101479.55;;;3.92;100.00
57050;BME280;42935;50.966;16.992;2023-04-22T01:04:14;101474.15;;;3.88;100.00
57050;BME280;42935;50.966;16.992;2023-04-22T01:07:42;101470.02;;;3.96;100.00
57050;BME280;42935;50.966;16.992;2023-04-22T01:11:06;101476.03;;;3.84;100.00
57050;BME280;42935;50.966;16.992;2023-04-22T01:14:32;101463.86;;;3.81;100.00
57050;BME280;42935;50.966;16.992;2023-04-22T01:17:54;101469.62;;;3.82;100.00
57050;BME280;42935;50.966;16.992;2023-04-22T01:21:19;101468.80;;;3.80;100.00
57050;BME280;42935;50.966;16.992;2023-04-22T01:24:39;101470.62;;;3.88;100.00
57050;BME280;42935;50.966;16.992;2023-04-22T01:28:04;101464.02;;;3.95;100.00
57050;BME280;42935;50.966;16.992;2023-04-22T01:31:31;101462.34;;;3.78;100.00
57050;BME280;42935;50.966;16.992;2023-04-22T01:34:56;101466.20;;;3.87;100.00
57050;BME280;42935;50.966;16.992;2023-04-22T01:38:19;101465.73;;;3.91;100.00
57050;BME280;42935;50.966;16.992;2023-04-22T01:41:41;101465.85;;;3.92;100.00
57050;BME280;42935;50.966;16.992;2023-04-22T01:45:10;101462.83;;;3.92;100.00
57050;BME280;42935;50.966;16.992;2023-04-22T01:48:39;101468.72;;;3.93;100.00
57050;BME280;42935;50.966;16.992;2023-04-22T01:52:05;101463.37;;;3.96;100.00
57050;BME280;42935;50.966;16.992;2023-04-22T01:55:27;101463.07;;;3.86;100.00
57050;BME280;42935;50.966;16.992;2023-04-22T01:58:49;101451.58;;;3.79;100.00
57050;BME280;42935;50.966;16.992;2023-04-22T02:02:14;101448.55;;;3.72;100.00
57050;BME280;42935;50.966;16.992;2023-04-22T02:05:34;101455.75;;;3.67;100.00
57050;BME280;42935;50.966;16.992;2023-04-22T02:08:55;101451.52;;;3.72;100.00
57050;BME280;42935;50.966;16.992;2023-04-22T02:12:20;101454.00;;;3.62;100.00
57050;BME280;42935;50.966;16.992;2023-04-22T02:15:40;101436.90;;;3.63;100.00
57050;BME280;42935;50.966;16.992;2023-04-22T02:19:01;101446.27;;;3.46;100.00
57050;BME280;42935;50.966;16.992;2023-04-22T02:22:25;101442.62;;;3.47;100.00
57050;BME280;42935;50.966;16.992;2023-04-22T02:25:52;101442.43;;;3.48;100.00
57050;BME280;42935;50.966;16.992;2023-04-22T02:29:13;101442.08;;;3.42;100.00
57050;BME280;42935;50.966;16.992;2023-04-22T02:32:35;101439.10;;;3.31;100.00
57050;BME280;42935;50.966;16.992;2023-04-22T02:35:57;101438.70;;;3.24;100.00
57050;BME280;42935;50.966;16.992;2023-04-22T02:39:19;101439.42;;;3.17;100.00
57050;BME280;42935;50.966;16.992;2023-04-22T02:42:48;101434.08;;;3.15;100.00
57050;BME280;42935;50.966;16.992;2023-04-22T02:46:09;101438.30;;;3.30;100.00
57050;BME280;42935;50.966;16.992;2023-04-22T02:49:29;101425.35;;;3.21;100.00
57050;BME280;42935;50.966;16.992;2023-04-22T02:52:50;101431.12;;;3.18;100.00
57050;BME280;42935;50.966;16.992;2023-04-22T02:56:08;101431.45;;;3.06;100.00
57050;BME280;42935;50.966;16.992;2023-04-22T02:59:25;101427.39;;;3.02;100.00
57050;BME280;42935;50.966;16.992;2023-04-22T03:02:46;101416.20;;;2.92;100.00
57050;BME280;42935;50.966;16.992;2023-04-22T03:06:07;101438.08;;;2.85;100.00
57050;BME280;42935;50.966;16.992;2023-04-22T03:09:27;101438.15;;;2.70;100.00
57050;BME280;42935;50.966;16.992;2023-04-22T03:12:50;101431.80;;;2.59;100.00
57050;BME280;42935;50.966;16.992;2023-04-22T03:16:09;101433.42;;;2.70;100.00
57050;BME280;42935;50.966;16.992;2023-04-22T03:19:27;101430.97;;;2.65;100.00
57050;BME280;42935;50.966;16.992;2023-04-22T03:22:45;101420.33;;;2.67;100.00
57050;BME280;42935;50.966;16.992;2023-04-22T03:26:06;101428.45;;;2.69;100.00
57050;BME280;42935;50.966;16.992;2023-04-22T03:29:27;101421.64;;;2.46;100.00
57050;BME280;42935;50.966;16.992;2023-04-22T03:32:47;101424.73;;;2.44;100.00
57050;BME280;42935;50.966;16.992;2023-04-22T03:36:07;101430.00;;;2.58;100.00
57050;BME280;42935;50.966;16.992;2023-04-22T03:39:31;101426.09;;;2.52;100.00
57050;BME280;42935;50.966;16.992;2023-04-22T03:42:50;101426.77;;;2.59;100.00
57050;BME280;42935;50.966;16.992;2023-04-22T03:46:15;101420.95;;;2.32;100.00
57050;BME280;42935;50.966;16.992;2023-04-22T03:49:40;101427.72;;;2.45;100.00
57050;BME280;42935;50.966;16.992;2023-04-22T03:53:00;101423.05;;;2.50;100.00
57050;BME280;42935;50.966;16.992;2023-04-22T03:56:24;101420.23;;;2.55;100.00
57050;BME280;42935;50.966;16.992;2023-04-22T03:59:45;101423.83;;;2.53;100.00
57050;BME280;42935;50.966;16.992;2023-04-22T04:03:05;101435.79;;;2.05;100.00
57050;BME280;42935;50.966;16.992;2023-04-22T04:06:26;101425.48;;;2.12;100.00
57050;BME280;42935;50.966;16.992;2023-04-22T04:09:50;101436.80;;;2.08;100.00
57050;BME280;42935;50.966;16.992;2023-04-22T04:13:09;101421.67;;;2.13;100.00
57050;BME280;42935;50.966;16.992;2023-04-22T04:16:30;101431.08;;;2.28;100.00
57050;BME280;42935;50.966;16.992;2023-04-22T04:19:53;101428.70;;;2.31;100.00
57050;BME280;42935;50.966;16.992;2023-04-22T04:23:14;101426.98;;;2.42;100.00
57050;BME280;42935;50.966;16.992;2023-04-22T04:26:38;101416.51;;;2.53;100.00
57050;BME280;42935;50.966;16.992;2023-04-22T04:30:07;101427.66;;;2.64;100.00
57050;BME280;42935;50.966;16.992;2023-04-22T04:33:30;101428.52;;;2.58;100.00
57050;BME280;42935;50.966;16.992;2023-04-22T04:36:51;101424.02;;;2.61;100.00
57050;BME280;42935;50.966;16.992;2023-04-22T04:40:12;101429.69;;;2.74;100.00
57050;BME280;42935;50.966;16.992;2023-04-22T04:43:42;101434.62;;;2.84;100.00
57050;BME280;42935;50.966;16.992;2023-04-22T04:47:05;101397.61;;;2.67;100.00
57050;BME280;42935;50.966;16.992;2023-04-22T04:51:04;101435.02;;;2.96;100.00
57050;BME280;42935;50.966;16.992;2023-04-22T04:54:25;101424.13;;;3.05;100.00
57050;BME280;42935;50.966;16.992;2023-04-22T04:57:50;101437.21;;;3.28;100.00
57050;BME280;42935;50.966;16.992;2023-04-22T05:01:10;101434.93;;;3.30;100.00
57050;BME280;42935;50.966;16.992;2023-04-22T05:05:05;101437.24;;;3.32;100.00
57050;BME280;42935;50.966;16.992;2023-04-22T05:08:26;101439.11;;;3.48;100.00
57050;BME280;42935;50.966;16.992;2023-04-22T05:11:54;101432.46;;;3.50;100.00
57050;BME280;42935;50.966;16.992;2023-04-22T05:15:21;101436.20;;;3.72;100.00
57050;BME280;42935;50.966;16.992;2023-04-22T05:19:17;101437.43;;;3.97;100.00
57050;BME280;42935;50.966;16.992;2023-04-22T05:22:45;101430.45;;;4.09;100.00
57050;BME280;42935;50.966;16.992;2023-04-22T05:26:14;101435.15;;;4.20;100.00
57050;BME280;42935;50.966;16.992;2023-04-22T05:29:41;101426.86;;;4.32;100.00
57050;BME280;42935;50.966;16.992;2023-04-22T05:33:06;101434.33;;;4.55;100.00
57050;BME280;42935;50.966;16.992;2023-04-22T05:36:29;101432.05;;;4.73;100.00
57050;BME280;42935;50.966;16.992;2023-04-22T05:39:58;101428.58;;;5.02;100.00
57050;BME280;42935;50.966;16.992;2023-04-22T05:43:18;101436.07;;;5.24;100.00
57050;BME280;42935;50.966;16.992;2023-04-22T05:46:41;101428.52;;;5.41;100.00
57050;BME280;42935;50.966;16.992;2023-04-22T05:50:02;101431.64;;;5.57;100.00
57050;BME280;42935;50.966;16.992;2023-04-22T05:53:27;101429.53;;;5.63;100.00
57050;BME280;42935;50.966;16.992;2023-04-22T05:56:47;101421.94;;;5.81;100.00
57050;BME280;42935;50.966;16.992;2023-04-22T06:00:16;101433.96;;;5.96;100.00
57050;BME280;42935;50.966;16.992;2023-04-22T06:03:42;101436.61;;;6.24;100.00
57050;BME280;42935;50.966;16.992;2023-04-22T06:07:11;101437.95;;;6.42;100.00
57050;BME280;42935;50.966;16.992;2023-04-22T06:10:28;101437.84;;;6.54;100.00
57050;BME280;42935;50.966;16.992;2023-04-22T06:13:53;101435.09;;;6.64;100.00
57050;BME280;42935;50.966;16.992;2023-04-22T06:17:18;101422.72;;;6.77;100.00
57050;BME280;42935;50.966;16.992;2023-04-22T06:20:42;101423.99;;;6.97;100.00
57050;BME280;42935;50.966;16.992;2023-04-22T06:24:02;101431.49;;;7.21;100.00
57050;BME280;42935;50.966;16.992;2023-04-22T06:27:29;101418.85;;;7.24;100.00
57050;BME280;42935;50.966;16.992;2023-04-22T06:30:49;101424.88;;;7.46;100.00
57050;BME280;42935;50.966;16.992;2023-04-22T06:34:09;101420.23;;;7.62;100.00
57050;BME280;42935;50.966;16.992;2023-04-22T06:37:31;101427.35;;;8.05;100.00
57050;BME280;42935;50.966;16.992;2023-04-22T06:41:01;101427.30;;;8.11;100.00
57050;BME280;42935;50.966;16.992;2023-04-22T06:44:21;101426.05;;;8.24;100.00
57050;BME280;42935;50.966;16.992;2023-04-22T06:47:43;101427.10;;;8.43;100.00
57050;BME280;42935;50.966;16.992;2023-04-22T06:51:11;101416.25;;;8.74;100.00
57050;BME280;42935;50.966;16.992;2023-04-22T06:54:35;101414.45;;;8.87;100.00
57050;BME280;42935;50.966;16.992;2023-04-22T06:58:04;101426.05;;;9.00;98.87
57050;BME280;42935;50.966;16.992;2023-04-22T07:01:28;101425.13;;;9.12;99.71
57050;BME280;42935;50.966;16.992;2023-04-22T07:04:55;101417.84;;;9.20;99.86
57050;BME280;42935;50.966;16.992;2023-04-22T07:08:29;101418.02;;;9.29;97.31
57050;BME280;42935;50.966;16.992;2023-04-22T07:11:51;101424.64;;;9.43;99.05
57050;BME280;42935;50.966;16.992;2023-04-22T07:15:17;101422.29;;;9.65;99.80
57050;BME280;42935;50.966;16.992;2023-04-22T07:18:37;101417.86;;;9.77;99.61
57050;BME280;42935;50.966;16.992;2023-04-22T07:21:58;101427.23;;;10.07;98.45
57050;BME280;42935;50.966;16.992;2023-04-22T07:25:23;101427.09;;;10.15;96.68
57050;BME280;42935;50.966;16.992;2023-04-22T07:28:45;101420.52;;;10.34;96.06
57050;BME280;42935;50.966;16.992;2023-04-22T07:32:13;101419.15;;;10.59;92.46
57050;BME280;42935;50.966;16.992;2023-04-22T07:35:40;101425.29;;;10.65;87.44
57050;BME280;42935;50.966;16.992;2023-04-22T07:39:05;101411.80;;;10.82;86.65
57050;BME280;42935;50.966;16.992;2023-04-22T07:42:31;101419.09;;;11.11;87.14
57050;BME280;42935;50.966;16.992;2023-04-22T07:45:51;101417.45;;;11.40;84.94
57050;BME280;42935;50.966;16.992;2023-04-22T07:49:16;101417.40;;;11.57;86.23
57050;BME280;42935;50.966;16.992;2023-04-22T07:52:41;101416.77;;;11.84;85.29
57050;BME280;42935;50.966;16.992;2023-04-22T07:56:03;101409.04;;;12.01;84.44
57050;BME280;42935;50.966;16.992;2023-04-22T07:59:28;101405.21;;;12.13;84.33
57050;BME280;42935;50.966;16.992;2023-04-22T08:02:52;101407.07;;;12.39;85.28
57050;BME280;42935;50.966;16.992;2023-04-22T08:06:12;101398.06;;;12.44;81.64
57050;BME280;42935;50.966;16.992;2023-04-22T08:09:41;101401.88;;;12.73;81.00
57050;BME280;42935;50.966;16.992;2023-04-22T08:13:10;101402.68;;;13.13;83.82
57050;BME280;42935;50.966;16.992;2023-04-22T08:16:31;101372.85;;;13.12;80.11
57050;BME280;42935;50.966;16.992;2023-04-22T08:19:51;101405.74;;;13.45;82.03
57050;BME280;42935;50.966;16.992;2023-04-22T08:23:13;101408.84;;;13.86;84.20
57050;BME280;42935;50.966;16.992;2023-04-22T08:26:39;101401.14;;;13.93;78.91
57050;BME280;42935;50.966;16.992;2023-04-22T08:30:05;101403.73;;;14.06;76.29
57050;BME280;42935;50.966;16.992;2023-04-22T08:33:34;101401.31;;;14.21;76.59
57050;BME280;42935;50.966;16.992;2023-04-22T08:36:59;101400.23;;;14.57;79.18
57050;BME280;42935;50.966;16.992;2023-04-22T08:40:24;101395.91;;;14.53;72.47
57050;BME280;42935;50.966;16.992;2023-04-22T08:43:48;101397.10;;;14.89;73.31
57050;BME280;42935;50.966;16.992;2023-04-22T08:47:17;101397.52;;;15.02;71.32
57050;BME280;42935;50.966;16.992;2023-04-22T08:50:38;101397.23;;;15.02;71.42
57050;BME280;42935;50.966;16.992;2023-04-22T08:54:02;101388.34;;;15.21;70.00
57050;BME280;42935;50.966;16.992;2023-04-22T08:57:19;101391.83;;;15.36;67.65
57050;BME280;42935;50.966;16.992;2023-04-22T09:00:43;101389.50;;;15.65;67.09
57050;BME280;42935;50.966;16.992;2023-04-22T09:04:05;101386.46;;;15.91;66.91
57050;BME280;42935;50.966;16.992;2023-04-22T09:07:56;101384.49;;;16.01;64.31
57050;BME280;42935;50.966;16.992;2023-04-22T09:11:16;101380.17;;;15.98;63.08
57050;BME280;42935;50.966;16.992;2023-04-22T09:14:35;101391.88;;;16.27;64.59
57050;BME280;42935;50.966;16.992;2023-04-22T09:17:55;101383.58;;;16.24;62.82
57050;BME280;42935;50.966;16.992;2023-04-22T09:21:15;101380.55;;;16.46;62.88
57050;BME280;42935;50.966;16.992;2023-04-22T09:24:48;101385.45;;;16.59;61.51
57050;BME280;42935;50.966;16.992;2023-04-22T09:28:18;101373.97;;;16.82;59.85
57050;BME280;42935;50.966;16.992;2023-04-22T09:31:38;101343.53;;;17.00;57.30
57050;BME280;42935;50.966;16.992;2023-04-22T09:35:00;101372.26;;;17.37;57.58
57050;BME280;42935;50.966;16.992;2023-04-22T09:38:21;101371.73;;;17.55;58.46
57050;BME280;42935;50.966;16.992;2023-04-22T09:41:38;101372.37;;;17.07;55.93
57050;BME280;42935;50.966;16.992;2023-04-22T09:44:55;101364.77;;;17.17;54.68
57050;BME280;42935;50.966;16.992;2023-04-22T09:48:19;101368.59;;;17.55;56.18
57050;BME280;42935;50.966;16.992;2023-04-22T09:51:40;101360.01;;;17.67;54.25
57050;BME280;42935;50.966;16.992;2023-04-22T09:55:00;101352.97;;;17.97;53.00
57050;BME280;42935;50.966;16.992;2023-04-22T09:58:25;101360.02;;;17.60;51.64
57050;BME280;42935;50.966;16.992;2023-04-22T10:01:48;101358.17;;;17.97;53.19
57050;BME280;42935;50.966;16.992;2023-04-22T10:05:09;101354.10;;;17.84;52.77
57050;BME280;42935;50.966;16.992;2023-04-22T10:08:29;101352.41;;;18.36;52.96
57050;BME280;42935;50.966;16.992;2023-04-22T10:11:54;101349.51;;;18.40;53.03
57050;BME280;42935;50.966;16.992;2023-04-22T10:15:14;101342.44;;;18.40;51.46
57050;BME280;42935;50.966;16.992;2023-04-22T10:18:39;101326.72;;;18.35;51.17
57050;BME280;42935;50.966;16.992;2023-04-22T10:22:01;101343.41;;;18.62;49.48
57050;BME280;42935;50.966;16.992;2023-04-22T10:25:26;101337.34;;;18.83;49.44
57050;BME280;42935;50.966;16.992;2023-04-22T10:28:50;101331.83;;;19.07;48.83
57050;BME280;42935;50.966;16.992;2023-04-22T10:39:27;101330.09;;;19.32;47.31
57050;BME280;42935;50.966;16.992;2023-04-22T10:42:52;101321.34;;;19.57;46.85
57050;BME280;42935;50.966;16.992;2023-04-22T10:49:43;101318.62;;;18.04;43.27
57050;BME280;42935;50.966;16.992;2023-04-22T10:56:34;101263.91;;;19.54;46.46
57050;BME280;42935;50.966;16.992;2023-04-22T11:03:36;101295.62;;;19.64;45.09
57050;BME280;42935;50.966;16.992;2023-04-22T11:10:37;101286.56;;;20.02;46.82
57050;BME280;42935;50.966;16.992;2023-04-22T11:14:01;101279.79;;;20.37;46.40
57050;BME280;42935;50.966;16.992;2023-04-22T11:17:22;101276.15;;;20.24;46.35
57050;BME280;42935;50.966;16.992;2023-04-22T11:20:43;101264.52;;;20.03;44.95
57050;BME280;42935;50.966;16.992;2023-04-22T11:24:10;101274.42;;;20.59;45.79
57050;BME280;42935;50.966;16.992;2023-04-22T11:27:34;101267.67;;;20.56;44.15
57050;BME280;42935;50.966;16.992;2023-04-22T11:31:05;101258.59;;;20.47;44.53
57050;BME280;42935;50.966;16.992;2023-04-22T11:34:25;101231.00;;;20.47;45.91
57050;BME280;42935;50.966;16.992;2023-04-22T11:37:48;101256.48;;;20.63;43.41
57050;BME280;42935;50.966;16.992;2023-04-22T11:41:05;101253.73;;;20.61;45.38
57050;BME280;42935;50.966;16.992;2023-04-22T11:44:25;101251.74;;;20.87;45.06
57050;BME280;42935;50.966;16.992;2023-04-22T11:47:50;101255.65;;;20.41;45.06
57050;BME280;42935;50.966;16.992;2023-04-22T11:51:09;101251.13;;;20.80;46.39
57050;BME280;42935;50.966;16.992;2023-04-22T11:54:36;101247.71;;;20.77;43.69
57050;BME280;42935;50.966;16.992;2023-04-22T11:58:05;101244.52;;;20.94;44.31
57050;BME280;42935;50.966;16.992;2023-04-22T12:01:20;101246.83;;;20.76;44.38
57050;BME280;42935;50.966;16.992;2023-04-22T12:04:41;101233.09;;;20.77;41.87
57050;BME280;42935;50.966;16.992;2023-04-22T12:11:34;101233.66;;;21.52;42.05
57050;BME280;42935;50.966;16.992;2023-04-22T12:14:55;101221.91;;;21.63;44.36
57050;BME280;42935;50.966;16.992;2023-04-22T12:18:36;101227.38;;;21.68;43.24
57050;BME280;42935;50.966;16.992;2023-04-22T12:21:57;101225.91;;;21.41;42.88
57050;BME280;42935;50.966;16.992;2023-04-22T12:25:19;101229.27;;;22.05;43.86
57050;BME280;42935;50.966;16.992;2023-04-22T12:28:44;101213.29;;;21.95;42.65
57050;BME280;42935;50.966;16.992;2023-04-22T12:32:07;101220.78;;;22.31;42.05
57050;BME280;42935;50.966;16.992;2023-04-22T12:35:24;101210.46;;;22.01;41.67
57050;BME280;42935;50.966;16.992;2023-04-22T12:38:46;101209.66;;;21.64;41.91
57050;BME280;42935;50.966;16.992;2023-04-22T12:42:06;101205.55;;;21.85;41.63
57050;BME280;42935;50.966;16.992;2023-04-22T12:45:24;101198.00;;;22.30;41.34
57050;BME280;42935;50.966;16.992;2023-04-22T12:48:46;101197.88;;;21.69;41.22
57050;BME280;42935;50.966;16.992;2023-04-22T12:52:03;101181.75;;;21.02;42.02
57050;BME280;42935;50.966;16.992;2023-04-22T12:55:20;101184.73;;;21.26;42.39
57050;BME280;42935;50.966;16.992;2023-04-22T12:58:38;101179.28;;;21.45;42.84
57050;BME280;42935;50.966;16.992;2023-04-22T13:01:59;101183.63;;;21.47;40.86
57050;BME280;42935;50.966;16.992;2023-04-22T13:05:18;101176.12;;;21.40;42.55
57050;BME280;42935;50.966;16.992;2023-04-22T13:08:35;101171.66;;;21.67;41.54
57050;BME280;42935;50.966;16.992;2023-04-22T13:11:56;101161.09;;;22.34;42.35
57050;BME280;42935;50.966;16.992;2023-04-22T13:15:17;101154.30;;;22.67;42.33
57050;BME280;42935;50.966;16.992;2023-04-22T13:18:44;101156.30;;;23.01;40.95
57050;BME280;42935;50.966;16.992;2023-04-22T13:22:07;101154.50;;;23.02;42.28
57050;BME280;42935;50.966;16.992;2023-04-22T13:25:28;101154.02;;;23.07;41.36
57050;BME280;42935;50.966;16.992;2023-04-22T13:28:49;101145.95;;;23.45;41.06
57050;BME280;42935;50.966;16.992;2023-04-22T13:32:05;101107.80;;;22.92;39.49
57050;BME280;42935;50.966;16.992;2023-04-22T13:35:23;101139.05;;;22.90;38.84
57050;BME280;42935;50.966;16.992;2023-04-22T13:38:44;101146.19;;;22.67;38.78
57050;BME280;42935;50.966;16.992;2023-04-22T13:42:06;101152.45;;;22.25;41.75
57050;BME280;42935;50.966;16.992;2023-04-22T13:45:27;101142.03;;;22.96;41.16
57050;BME280;42935;50.966;16.992;2023-04-22T13:48:53;101138.77;;;23.49;39.92
57050;BME280;42935;50.966;16.992;2023-04-22T13:52:10;101131.20;;;23.12;39.81
57050;BME280;42935;50.966;16.992;2023-04-22T13:56:01;101119.75;;;22.56;40.64
57050;BME280;42935;50.966;16.992;2023-04-22T13:59:25;101128.05;;;22.64;39.76
57050;BME280;42935;50.966;16.992;2023-04-22T14:02:43;101123.34;;;22.66;39.91
57050;BME280;42935;50.966;16.992;2023-04-22T14:06:05;101114.52;;;22.63;39.74
57050;BME280;42935;50.966;16.992;2023-04-22T14:09:25;101114.55;;;23.02;39.98
57050;BME280;42935;50.966;16.992;2023-04-22T14:12:48;101112.04;;;21.97;41.16
57050;BME280;42935;50.966;16.992;2023-04-22T14:16:07;101112.20;;;22.52;40.46
57050;BME280;42935;50.966;16.992;2023-04-22T14:19:28;101112.74;;;22.85;39.92
57050;BME280;42935;50.966;16.992;2023-04-22T14:22:47;101107.81;;;23.72;39.36
57050;BME280;42935;50.966;16.992;2023-04-22T14:26:10;101109.16;;;23.83;38.69
57050;BME280;42935;50.966;16.992;2023-04-22T14:29:31;101104.53;;;23.75;38.73
57050;BME280;42935;50.966;16.992;2023-04-22T14:32:51;101098.16;;;24.26;39.61
57050;BME280;42935;50.966;16.992;2023-04-22T14:36:10;101077.24;;;25.27;39.89
57050;BME280;42935;50.966;16.992;2023-04-22T14:39:28;101093.23;;;25.06;37.28
57050;BME280;42935;50.966;16.992;2023-04-22T14:42:51;101094.89;;;23.95;39.60
57050;BME280;42935;50.966;16.992;2023-04-22T14:46:10;101088.99;;;24.47;38.73
57050;BME280;42935;50.966;16.992;2023-04-22T14:49:31;101092.38;;;23.53;37.55
57050;BME280;42935;50.966;16.992;2023-04-22T14:52:53;101091.03;;;24.49;38.17
57050;BME280;42935;50.966;16.992;2023-04-22T14:56:18;101089.69;;;25.03;37.75
57050;BME280;42935;50.966;16.992;2023-04-22T14:59:39;101084.80;;;25.62;37.73
57050;BME280;42935;50.966;16.992;2023-04-22T15:02:59;101081.09;;;24.65;37.20
57050;BME280;42935;50.966;16.992;2023-04-22T15:06:17;101072.65;;;24.36;36.48
57050;BME280;42935;50.966;16.992;2023-04-22T15:09:33;101065.91;;;24.99;36.72
57050;BME280;42935;50.966;16.992;2023-04-22T15:12:53;101066.23;;;24.23;37.03
57050;BME280;42935;50.966;16.992;2023-04-22T15:16:18;101059.96;;;24.49;36.92
57050;BME280;42935;50.966;16.992;2023-04-22T15:19:39;101064.37;;;23.59;37.70
57050;BME280;42935;50.966;16.992;2023-04-22T15:22:55;101060.41;;;23.86;38.39
57050;BME280;42935;50.966;16.992;2023-04-22T15:26:12;101064.59;;;24.47;38.23
57050;BME280;42935;50.966;16.992;2023-04-22T15:29:29;101063.74;;;24.36;36.85
57050;BME280;42935;50.966;16.992;2023-04-22T15:32:52;101056.84;;;23.39;37.86
57050;BME280;42935;50.966;16.992;2023-04-22T15:36:10;101058.97;;;24.58;38.26
57050;BME280;42935;50.966;16.992;2023-04-22T15:39:30;101062.62;;;24.04;38.92
57050;BME280;42935;50.966;16.992;2023-04-22T15:42:48;101055.32;;;23.25;38.66
57050;BME280;42935;50.966;16.992;2023-04-22T15:46:09;101024.38;;;22.95;39.81
57050;BME280;42935;50.966;16.992;2023-04-22T15:49:30;101047.95;;;23.50;39.74
57050;BME280;42935;50.966;16.992;2023-04-22T15:52:51;101051.08;;;23.23;38.33
57050;BME280;42935;50.966;16.992;2023-04-22T15:56:13;101047.45;;;24.13;38.87
57050;BME280;42935;50.966;16.992;2023-04-22T15:59:34;101045.52;;;24.37;38.43
57050;BME280;42935;50.966;16.992;2023-04-22T16:02:55;101047.90;;;23.31;38.28
57050;BME280;42935;50.966;16.992;2023-04-22T16:06:17;101050.85;;;22.93;38.03
57050;BME280;42935;50.966;16.992;2023-04-22T16:09:44;101047.61;;;22.74;38.54
57050;BME280;42935;50.966;16.992;2023-04-22T16:13:00;101045.01;;;23.17;38.28
57050;BME280;42935;50.966;16.992;2023-04-22T16:16:25;101044.84;;;22.84;38.28
57050;BME280;42935;50.966;16.992;2023-04-22T16:19:46;101041.84;;;22.77;37.57
57050;BME280;42935;50.966;16.992;2023-04-22T16:23:07;101039.55;;;22.24;38.48
57050;BME280;42935;50.966;16.992;2023-04-22T16:26:27;101025.51;;;22.47;38.69
57050;BME280;42935;50.966;16.992;2023-04-22T16:29:45;101033.02;;;22.28;38.77
57050;BME280;42935;50.966;16.992;2023-04-22T16:33:05;101020.80;;;22.48;38.34
57050;BME280;42935;50.966;16.992;2023-04-22T16:36:26;101029.30;;;22.46;38.80
57050;BME280;42935;50.966;16.992;2023-04-22T16:39:47;101022.65;;;22.89;38.26
57050;BME280;42935;50.966;16.992;2023-04-22T16:43:08;101022.91;;;22.26;38.67
57050;BME280;42935;50.966;16.992;2023-04-22T16:46:30;101020.78;;;22.06;39.67
57050;BME280;42935;50.966;16.992;2023-04-22T16:50:21;101007.09;;;22.01;39.47
57050;BME280;42935;50.966;16.992;2023-04-22T16:53:42;101008.75;;;21.87;39.76
57050;BME280;42935;50.966;16.992;2023-04-22T16:57:02;101013.24;;;22.01;39.58
57050;BME280;42935;50.966;16.992;2023-04-22T17:00:29;101014.75;;;21.38;40.53
57050;BME280;42935;50.966;16.992;2023-04-22T17:03:45;101014.74;;;21.44;40.93
57050;BME280;42935;50.966;16.992;2023-04-22T17:07:01;101009.93;;;21.63;41.37
57050;BME280;42935;50.966;16.992;2023-04-22T17:10:19;101006.99;;;21.62;41.38
57050;BME280;42935;50.966;16.992;2023-04-22T17:13:43;101010.86;;;21.14;42.28
57050;BME280;42935;50.966;16.992;2023-04-22T17:17:02;101003.77;;;21.03;43.08
57050;BME280;42935;50.966;16.992;2023-04-22T17:20:21;101008.77;;;20.05;43.84
57050;BME280;42935;50.966;16.992;2023-04-22T17:23:42;101014.48;;;20.38;44.39
57050;BME280;42935;50.966;16.992;2023-04-22T17:27:03;101010.42;;;19.94;44.69
57050;BME280;42935;50.966;16.992;2023-04-22T17:30:23;101002.54;;;20.05;45.07
57050;BME280;42935;50.966;16.992;2023-04-22T17:33:43;101009.39;;;20.08;45.25
57050;BME280;42935;50.966;16.992;2023-04-22T17:37:08;101005.42;;;19.94;45.23
57050;BME280;42935;50.966;16.992;2023-04-22T17:40:26;101012.60;;;19.42;46.78
57050;BME280;42935;50.966;16.992;2023-04-22T17:43:42;101013.80;;;19.18;46.59
57050;BME280;42935;50.966;16.992;2023-04-22T17:47:04;101008.88;;;19.05;46.77
57050;BME280;42935;50.966;16.992;2023-04-22T17:50:57;101012.66;;;18.20;48.06
57050;BME280;42935;50.966;16.992;2023-04-22T17:54:30;101015.21;;;17.64;49.29